Flight Track Log - Related Links

Times and Time Zones

All times are in EDT time to prevent confusion due to time zone crossing. See the EGF3793 flight status page for this flight to view local times or setup timezone preferences in your user account.

Time Position Orientation Groundspeed Altitude Reporting Facility
EDT Latitude Longitude Course Direction KTS MPH feet Rate Location/Type
Sun 11:29:43 PM 42.0333 -87.9667 253° West 192 221 3,900  Level Chicago TRACON
Sun 11:30:00 PM 41.9000 -88.2130 270° West  Level FlightAware Approximate
Sun 11:30:37 PM 42.0833 -88.0167 323° Northwest 254 292 5,700  Level Chicago TRACON
Sun 11:31:00 PM 41.8625 -88.3687 242° Southwest  Level FlightAware Approximate
Sun 11:32:00 PM 41.8241 -88.5252 254° West  Level FlightAware Approximate
Sun 11:32:26 PM 42.0458 -88.1894 254° West 266 306 11,200  Level Chicago Center
Sun 11:33:00 PM 41.7890 -88.6838 254° West  Level FlightAware Approximate
Sun 11:33:27 PM 42.0069 -88.2817 240° Southwest 283 326 14,000  Level Chicago Center
Sun 11:34:00 PM 41.7565 -88.8301 253° West  Level FlightAware Approximate
Sun 11:34:27 PM 41.9667 -88.3778 241° Southwest 293 337 16,400  Level Chicago Center
Sun 11:35:28 PM 41.9364 -88.4808 248° West 298 343 18,800 1,967 Climbing Chicago Center
Sun 11:36:29 PM 41.9075 -88.5864 250° West 303 349 20,400 1,190 Climbing Chicago Center
Sun 11:37:29 PM 41.8739 -88.7075 250° West 343 395 21,200 793 Climbing Chicago Center
Sun 11:38:30 PM 41.8372 -88.8397 250° West 376 433 22,000 787 Climbing Chicago Center
Sun 11:39:31 PM 41.7975 -88.9833 250° West 408 470 22,800 1,041 Climbing Chicago Center
Sun 11:40:31 PM 41.7467 -89.1608 249° West 429 494 24,100 1,190 Climbing Chicago Center
Sun 11:41:32 PM 41.7058 -89.3125 250° West 435 501 25,200 1,041 Climbing Chicago Center
Sun 11:42:32 PM 41.6653 -89.4636 250° West 436 502 26,200 992 Climbing Chicago Center
Sun 11:43:33 PM 41.6181 -89.6211 248° West 452 520 27,200 984 Climbing Chicago Center
Sun 11:44:34 PM 41.5725 -89.7814 249° West 463 533 28,200 992 Climbing Chicago Center
Sun 11:45:34 PM 41.5264 -89.9389 249° West 461 531 29,200 992 Climbing Chicago Center
Sun 11:46:35 PM 41.4800 -90.0989 249° West 463 533 30,200 992 Climbing Chicago Center
Sun 11:47:35 PM 41.4333 -90.2597 249° West 466 536 31,200 992 Climbing Chicago Center
Sun 11:48:36 PM 41.3853 -90.4206 248° West 469 540 32,200 992 Climbing Chicago Center
Sun 11:49:36 PM 41.3378 -90.5822 249° West 471 542 33,200 893 Climbing Chicago Center
Sun 11:50:37 PM 41.2569 -90.7325 234° Southwest 499 574 34,000 738 Climbing Chicago Center
Sun 11:51:38 PM 41.1653 -90.8789 230° Southwest 516 594 34,700 694 Climbing Chicago Center
Sun 11:52:38 PM 41.0725 -91.0250 230° Southwest 520 598 35,400 694 Climbing Chicago Center
Sun 11:53:39 PM 40.9797 -91.1714 230° Southwest 521 600 36,100 744 Climbing Chicago Center
Sun 11:54:39 PM 40.8769 -91.3283 229° Southwest 521 600 36,900 744 Climbing Chicago Center
Sun 11:55:40 PM 40.7867 -91.4700 230° Southwest 511 588 37,600 545 Climbing Chicago Center
Sun 11:56:40 PM 40.6964 -91.6094 230° Southwest 505 581 38,000 214 Climbing Chicago Center
Sun 11:57:32 PM 40.6233 -91.7192 229° Southwest 502 578 38,000  Level Kansas City Center
Sun 11:58:33 PM 40.5342 -91.8561 229° Southwest 499 574 38,000  Level Kansas City Center
Sun 11:59:33 PM 40.4267 -92.0203 229° Southwest 495 570 38,000  Level Kansas City Center
Mon 12:00:34 AM 40.3369 -92.1558 229° Southwest 494 568 38,000  Level Kansas City Center
Mon 12:01:34 AM 40.2467 -92.2928 229° Southwest 495 570 38,000  Level Kansas City Center
Mon 12:02:35 AM 40.1639 -92.4142 228° Southwest 490 564 38,000  Level Kansas City Center
Mon 12:03:35 AM 40.0631 -92.5658 229° Southwest 493 567 38,000  Level Kansas City Center
Mon 12:04:36 AM 39.9656 -92.6967 226° Southwest 502 578 38,000  Level Kansas City Center
Mon 12:05:36 AM 39.8597 -92.8156 221° Southwest 507 583 38,000  Level Kansas City Center
Mon 12:06:37 AM 39.7564 -92.9394 223° Southwest 506 582 38,000  Level Kansas City Center
Mon 12:07:37 AM 39.6511 -93.0633 222° Southwest 512 589 38,000  Level Kansas City Center
Mon 12:08:38 AM 39.5461 -93.1800 221° Southwest 505 581 38,000  Level Kansas City Center
Mon 12:09:38 AM 39.4397 -93.3000 221° Southwest 508 585 38,000  Level Kansas City Center
Mon 12:10:39 AM 39.3344 -93.4203 221° Southwest 509 586 38,000  Level Kansas City Center
Mon 12:11:39 AM 39.2281 -93.5450 222° Southwest 505 581 38,000  Level Kansas City Center
Mon 12:12:40 AM 39.1264 -93.6600 221° Southwest 507 583 38,000  Level Kansas City Center
Mon 12:13:40 AM 39.0067 -93.7961 221° Southwest 511 588 38,000  Level Kansas City Center
Mon 12:14:41 AM 38.9022 -93.9108 221° Southwest 513 590 38,000  Level Kansas City Center
Mon 12:15:41 AM 38.7994 -94.0275 222° Southwest 514 592 38,000  Level Kansas City Center
Mon 12:16:42 AM 38.6956 -94.1433 221° Southwest 514 592 38,000  Level Kansas City Center
Mon 12:17:42 AM 38.5739 -94.2775 221° Southwest 513 590 38,000  Level Kansas City Center
Mon 12:18:43 AM 38.4700 -94.3925 221° Southwest 514 592 38,000  Level Kansas City Center
Mon 12:19:43 AM 38.3658 -94.5056 220° Southwest 514 592 38,000  Level Kansas City Center
Mon 12:20:43 AM 38.2447 -94.6381 221° Southwest 511 588 38,000  Level Kansas City Center
Mon 12:21:44 AM 38.1394 -94.7531 221° Southwest 515 593 38,000  Level Kansas City Center
Mon 12:22:44 AM 38.0350 -94.8647 220° Southwest 513 590 38,000  Level Kansas City Center
Mon 12:23:45 AM 37.9306 -94.9772 220° Southwest 513 590 38,000  Level Kansas City Center
Mon 12:24:45 AM 37.8089 -95.1081 220° Southwest 513 590 38,000  Level Kansas City Center
Mon 12:25:45 AM 37.7036 -95.2228 221° Southwest 515 593 38,000  Level Kansas City Center
Mon 12:26:46 AM 37.5950 -95.3394 220° Southwest 515 593 38,000  Level Kansas City Center
Mon 12:27:46 AM 37.4861 -95.4556 220° Southwest 513 590 38,000  Level Kansas City Center
Mon 12:28:47 AM 37.3781 -95.5722 221° Southwest 513 590 38,000  Level Kansas City Center
Mon 12:29:47 AM 37.2689 -95.6875 220° Southwest 512 589 38,000  Level Kansas City Center
Mon 12:30:47 AM 37.1592 -95.8031 220° Southwest 514 592 38,000  Level Kansas City Center
Mon 12:31:48 AM 37.0508 -95.9167 220° Southwest 512 589 38,000  Level Kansas City Center
Mon 12:32:48 AM 36.9406 -96.0314 220° Southwest 515 593 38,000  Level Kansas City Center
Mon 12:33:49 AM 36.8314 -96.1444 220° Southwest 514 592 38,000 -198 Level Kansas City Center
Mon 12:34:49 AM 36.7219 -96.2592 220° Southwest 515 593 37,600 -1,600 Descending Kansas City Center
Mon 12:35:49 AM 36.6136 -96.3700 219° Southwest 511 588 34,800 -3,273 Descending Kansas City Center
Mon 12:36:50 AM 36.5067 -96.4806 220° Southwest 506 582 31,000 -3,719 Descending Kansas City Center
Mon 12:37:50 AM 36.3967 -96.5933 220° Southwest 508 585 27,300 -3,150 Descending Kansas City Center
Mon 12:38:50 AM 36.2897 -96.7000 219° Southwest 504 580 24,700 -3,223 Descending Kansas City Center
Mon 12:39:51 AM 36.1967 -96.7964 220° Southwest 471 542 20,800 -3,521 Descending Kansas City Center
Mon 12:40:51 AM 36.1056 -96.8883 219° Southwest 434 499 17,600 -3,250 Descending Kansas City Center
Mon 12:41:51 AM 36.0186 -96.9767 219° Southwest 415 478 14,300 -2,777 Descending Kansas City Center
Mon 12:42:52 AM 35.9367 -97.0597 219° Southwest 391 450 12,000 -2,033 Descending Kansas City Center
Mon 12:43:52 AM 35.8611 -97.1481 223° Southwest 321 369 10,200 -1,852 Descending Kansas City Center
Mon 12:44:13 AM 35.8356 -97.1756 221° Southwest 271 312 9,500 -1,610 Descending Fort Worth Center
Mon 12:45:14 AM 35.7856 -97.2397 226° Southwest 259 298 8,000 -1,240 Descending Fort Worth Center
Mon 12:46:14 AM 35.7314 -97.3011 223° Southwest 260 299 7,000 -1,091 Descending Fort Worth Center
Mon 12:47:15 AM 35.6814 -97.3572 222° Southwest 254 292 5,800 -1,033 Descending Fort Worth Center
Mon 12:48:16 AM 35.6314 -97.4161 224° Southwest 236 272 4,900 -793 Descending Fort Worth Center
Mon 12:49:16 AM 35.5833 -97.4697 222° Southwest 237 273 4,200 -425 Descending Fort Worth Center
Mon 12:50:23 AM 35.5333 -97.5283 224° Southwest 212 244 4,000 -472 Descending Fort Worth Center
Mon 12:51:23 AM 35.4958 -97.5717 223° Southwest 194 223 3,200 -793 Descending Fort Worth Center
Mon 12:52:24 AM 35.4644 -97.5919 208° Southwest 107 123 2,400 -787 Descending Fort Worth Center

Login

Don't have an account? Register now (free) for customized features, flight alerts, and more!